OHHKT EFKY-EFKY

Flight info

Callsign OHHKT
Flight time 0h 34m
Altitude 2000
Route KOTKA HAMINA
Aircraft P28A/L-VGD/C

Departure

Time 2026-04-21 11:55
Airport Kymi Airfield (EFKY)

Arrival

Time 2026-04-21 12:29
Airport Kymi Airfield (EFKY)
Time Latitude Longitude Altitude Speed Heading
2026-04-21 11:47 60.57534 26.89610 227 ft 0 kts 71°
2026-04-21 11:48 60.57537 26.89616 227 ft 2 kts 14°
2026-04-21 11:48 60.57539 26.89599 225 ft 3 kts 213°
2026-04-21 11:48 60.57508 26.89593 224 ft 3 kts 176°
2026-04-21 11:48 60.57500 26.89578 225 ft 0 kts 295°
2026-04-21 11:52 60.57493 26.89541 226 ft 7 kts 248°
2026-04-21 11:52 60.57475 26.89440 227 ft 7 kts 244°
2026-04-21 11:52 60.57419 26.89447 227 ft 11 kts 164°
2026-04-21 11:52 60.57327 26.89503 226 ft 17 kts 164°
2026-04-21 11:53 60.57196 26.89581 220 ft 22 kts 164°
2026-04-21 11:53 60.57105 26.89628 218 ft 10 kts 172°
2026-04-21 11:53 60.57113 26.89632 218 ft 3 kts 320°
2026-04-21 11:53 60.57150 26.89609 219 ft 25 kts 343°
2026-04-21 11:54 60.57509 26.89392 247 ft 76 kts 341°
2026-04-21 11:54 60.58027 26.89106 486 ft 77 kts 343°
2026-04-21 11:54 60.58524 26.88614 585 ft 84 kts 311°
2026-04-21 11:54 60.58584 26.87466 665 ft 88 kts 257°
2026-04-21 11:55 60.58162 26.86531 813 ft 96 kts 211°
2026-04-21 11:55 60.57491 26.86515 956 ft 97 kts 161°
2026-04-21 11:55 60.56880 26.87019 1109 ft 92 kts 154°
2026-04-21 11:55 60.56493 26.87397 1184 ft 93 kts 152°
2026-04-21 11:56 60.55915 26.87999 1288 ft 93 kts 152°
2026-04-21 11:56 60.55335 26.88610 1387 ft 94 kts 148°
2026-04-21 11:56 60.54786 26.89332 1482 ft 95 kts 142°
2026-04-21 11:56 60.54266 26.90131 1655 ft 91 kts 136°
2026-04-21 11:57 60.53750 26.90935 1774 ft 94 kts 140°
2026-04-21 11:57 60.53244 26.91728 1937 ft 92 kts 141°
2026-04-21 11:57 60.52668 26.92366 2053 ft 99 kts 154°
2026-04-21 11:57 60.51988 26.92782 2124 ft 102 kts 167°
2026-04-21 11:58 60.51277 26.92927 2161 ft 106 kts 178°
2026-04-21 11:58 60.50532 26.92910 2152 ft 110 kts 181°
2026-04-21 11:58 60.49769 26.92863 2113 ft 109 kts 183°
2026-04-21 11:58 60.49012 26.92791 2065 ft 109 kts 184°
2026-04-21 11:59 60.48242 26.92688 2073 ft 111 kts 186°
2026-04-21 11:59 60.47484 26.92482 2122 ft 111 kts 192°
2026-04-21 11:59 60.46732 26.92064 2127 ft 113 kts 199°
2026-04-21 11:59 60.45994 26.91593 2142 ft 112 kts 201°
2026-04-21 12:00 60.45284 26.90957 2071 ft 113 kts 213°
2026-04-21 12:00 60.44630 26.90134 2068 ft 108 kts 218°
2026-04-21 12:00 60.44022 26.89229 2089 ft 108 kts 217°
2026-04-21 12:00 60.43332 26.88590 2143 ft 112 kts 198°
2026-04-21 12:01 60.42568 26.88421 2162 ft 110 kts 178°
2026-04-21 12:01 60.41816 26.88728 2091 ft 112 kts 157°
2026-04-21 12:01 60.41193 26.89612 2051 ft 108 kts 129°
2026-04-21 12:01 60.40798 26.90874 2008 ft 105 kts 108°
2026-04-21 12:02 60.40686 26.92289 1974 ft 100 kts 80°
2026-04-21 12:02 60.41414 26.94381 1893 ft 93 kts 21°
2026-04-21 12:02 60.42019 26.94748 1893 ft 88 kts 13°
2026-04-21 12:03 60.42621 26.95028 1841 ft 90 kts 11°
2026-04-21 12:03 60.43230 26.95320 1816 ft 89 kts 12°
2026-04-21 12:03 60.43825 26.95638 1795 ft 89 kts 13°
2026-04-21 12:03 60.44423 26.95977 1767 ft 90 kts 15°
2026-04-21 12:04 60.45025 26.96301 1755 ft 88 kts 13°
2026-04-21 12:04 60.45609 26.96637 1745 ft 87 kts 15°
2026-04-21 12:04 60.46193 26.96978 1735 ft 88 kts 12°
2026-04-21 12:04 60.46795 26.97198 1717 ft 87 kts
2026-04-21 12:05 60.47396 26.97473 1691 ft 89 kts 14°
2026-04-21 12:05 60.47984 26.97817 1743 ft 86 kts 14°
2026-04-21 12:05 60.48558 26.98148 1730 ft 87 kts 16°
2026-04-21 12:05 60.49117 26.98538 1760 ft 84 kts 17°
2026-04-21 12:06 60.49646 26.99117 1754 ft 90 kts 32°
2026-04-21 12:06 60.50096 27.00008 1765 ft 91 kts 44°
2026-04-21 12:06 60.50495 27.01019 1760 ft 92 kts 47°
2026-04-21 12:06 60.50848 27.02136 1738 ft 95 kts 54°
2026-04-21 12:07 60.51137 27.03308 1768 ft 93 kts 60°
2026-04-21 12:07 60.51384 27.04526 1773 ft 94 kts 64°
2026-04-21 12:07 60.51606 27.05780 1776 ft 94 kts 65°
2026-04-21 12:07 60.51780 27.07060 1773 ft 96 kts 70°
2026-04-21 12:08 60.51925 27.08372 1769 ft 94 kts 71°
2026-04-21 12:08 60.52020 27.09726 1722 ft 99 kts 78°
2026-04-21 12:08 60.52100 27.11104 1736 ft 98 kts 79°
2026-04-21 12:08 60.52112 27.12494 1744 ft 100 kts 87°
2026-04-21 12:09 60.51923 27.13877 1754 ft 104 kts 110°
2026-04-21 12:09 60.51516 27.15106 1770 ft 106 kts 123°
2026-04-21 12:09 60.51118 27.16355 1780 ft 106 kts 111°
2026-04-21 12:09 60.50862 27.17736 1820 ft 103 kts 100°
2026-04-21 12:10 60.50794 27.19158 1834 ft 100 kts 78°
2026-04-21 12:10 60.51061 27.20369 1851 ft 92 kts 44°
2026-04-21 12:10 60.51573 27.21105 1859 ft 89 kts 26°
2026-04-21 12:10 60.52132 27.21671 1887 ft 91 kts 22°
2026-04-21 12:11 60.52506 27.22031 1911 ft 89 kts 23°
2026-04-21 12:11 60.53253 27.22768 1875 ft 91 kts 20°
2026-04-21 12:11 60.53842 27.23212 1987 ft 88 kts 18°
2026-04-21 12:11 60.54419 27.23690 2066 ft 91 kts 20°
2026-04-21 12:12 60.55000 27.24159 2114 ft 90 kts 17°
2026-04-21 12:12 60.55596 27.24506 2103 ft 88 kts 12°
2026-04-21 12:12 60.56207 27.24736 2075 ft 89 kts
2026-04-21 12:12 60.56819 27.24732 2059 ft 88 kts 356°
2026-04-21 12:13 60.57434 27.24550 2010 ft 89 kts 350°
2026-04-21 12:13 60.58010 27.24126 1983 ft 90 kts 339°
2026-04-21 12:13 60.58589 27.23603 2011 ft 89 kts 338°
2026-04-21 12:13 60.59146 27.23070 2033 ft 90 kts 339°
2026-04-21 12:14 60.59711 27.22520 2042 ft 89 kts 334°
2026-04-21 12:14 60.60261 27.21924 2023 ft 90 kts 337°
2026-04-21 12:14 60.60832 27.21429 2033 ft 90 kts 338°
2026-04-21 12:14 60.61229 27.20383 1976 ft 102 kts 289°
2026-04-21 12:15 60.61045 27.19008 1977 ft 107 kts 238°
2026-04-21 12:15 60.60380 27.18305 1956 ft 113 kts 187°
2026-04-21 12:15 60.59661 27.18761 1989 ft 110 kts 141°
2026-04-21 12:15 60.59219 27.19943 2011 ft 105 kts 107°
2026-04-21 12:16 60.59230 27.21345 2002 ft 97 kts 60°
2026-04-21 12:16 60.59716 27.22159 1977 ft 93 kts 13°
2026-04-21 12:16 60.60299 27.21745 1944 ft 97 kts 315°
2026-04-21 12:16 60.60477 27.20409 1994 ft 99 kts 276°
2026-04-21 12:17 60.60392 27.18990 1975 ft 103 kts 265°
2026-04-21 12:17 60.60128 27.17611 1956 ft 108 kts 242°
2026-04-21 12:17 60.59570 27.16588 1989 ft 110 kts 214°
2026-04-21 12:17 60.58831 27.16136 1960 ft 113 kts 182°
2026-04-21 12:18 60.58077 27.16541 1950 ft 111 kts 156°
2026-04-21 12:18 60.57330 27.16968 1947 ft 113 kts 168°
2026-04-21 12:18 60.56552 27.17154 1933 ft 112 kts 178°
2026-04-21 12:18 60.55779 27.16939 1900 ft 111 kts 199°
2026-04-21 12:19 60.55092 27.16260 1885 ft 111 kts 217°
2026-04-21 12:19 60.54516 27.15250 1899 ft 107 kts 232°
2026-04-21 12:19 60.54136 27.13951 1820 ft 106 kts 255°
2026-04-21 12:19 60.53911 27.12582 1835 ft 101 kts 258°
2026-04-21 12:20 60.53686 27.11219 1901 ft 102 kts 258°
2026-04-21 12:20 60.53430 27.09836 1864 ft 106 kts 257°
2026-04-21 12:20 60.53181 27.08449 1851 ft 104 kts 254°
2026-04-21 12:20 60.52915 27.07084 1813 ft 104 kts 255°
2026-04-21 12:21 60.52673 27.05692 1736 ft 105 kts 258°
2026-04-21 12:21 60.52442 27.04278 1671 ft 104 kts 260°
2026-04-21 12:21 60.52401 27.02866 1649 ft 98 kts 284°
2026-04-21 12:21 60.52628 27.01599 1638 ft 93 kts 307°
2026-04-21 12:22 60.53056 27.00660 1662 ft 90 kts 326°
2026-04-21 12:22 60.53576 26.99996 1678 ft 90 kts 334°
2026-04-21 12:22 60.54123 26.99337 1690 ft 91 kts 332°
2026-04-21 12:22 60.54655 26.98672 1716 ft 90 kts 332°
2026-04-21 12:23 60.55167 26.97902 1732 ft 91 kts 327°
2026-04-21 12:23 60.55701 26.97205 1695 ft 89 kts 335°
2026-04-21 12:23 60.56235 26.96716 1797 ft 84 kts 342°
2026-04-21 12:23 60.56816 26.96372 1842 ft 85 kts 348°
2026-04-21 12:24 60.57380 26.96120 1877 ft 85 kts 350°
2026-04-21 12:24 60.57961 26.95844 1890 ft 86 kts 349°
2026-04-21 12:24 60.58537 26.95577 1944 ft 85 kts 348°
2026-04-21 12:24 60.59107 26.95235 1934 ft 87 kts 348°
2026-04-21 12:25 60.59688 26.94972 1998 ft 85 kts 350°
2026-04-21 12:25 60.60243 26.94513 2030 ft 87 kts 336°
2026-04-21 12:25 60.60733 26.93793 2054 ft 93 kts 315°
2026-04-21 12:25 60.60935 26.92539 2134 ft 95 kts 279°
2026-04-21 12:26 60.60894 26.91194 2101 ft 100 kts 272°
2026-04-21 12:26 60.60803 26.89862 2094 ft 93 kts 266°
2026-04-21 12:26 60.60642 26.88484 1965 ft 99 kts 260°
2026-04-21 12:26 60.60393 26.87168 1850 ft 103 kts 250°
2026-04-21 12:27 60.59937 26.86047 1741 ft 107 kts 221°
2026-04-21 12:27 60.59231 26.85548 1566 ft 110 kts 183°
2026-04-21 12:27 60.58519 26.85944 1461 ft 104 kts 148°
2026-04-21 12:27 60.57938 26.86788 1270 ft 104 kts 140°
2026-04-21 12:28 60.57375 26.87727 1032 ft 106 kts 140°
2026-04-21 12:28 60.56706 26.88398 896 ft 104 kts 156°
2026-04-21 12:28 60.56081 26.88994 747 ft 98 kts 138°
2026-04-21 12:28 60.56123 26.90057 643 ft 81 kts 31°
2026-04-21 12:29 60.56655 26.89895 430 ft 79 kts 343°
2026-04-21 12:29 60.57151 26.89613 239 ft 67 kts 342°
2026-04-21 12:29 60.57501 26.89396 225 ft 24 kts 343°
2026-04-21 12:29 60.57579 26.89350 226 ft 4 kts 356°
2026-04-21 12:30 60.57607 26.89415 225 ft 9 kts 68°
2026-04-21 12:30 60.57625 26.89512 224 ft 5 kts 96°
2026-04-21 12:30 60.57578 26.89550 223 ft 9 kts 163°
2026-04-21 12:30 60.57553 26.89600 223 ft 2 kts 74°
2026-04-21 12:31 60.57554 26.89608 222 ft 0 kts 73°